Time;durP1;ratioP1;P1;durP2;ratioP2;P2;SDS_P1;SDS_P2;PMS_P1;PMS_P2;Temp;Humidity;BMP_temperature;BMP_pressure;BME280_temperature;BME280_humidity;BME280_pressure;Samples;Min_cycle;Max_cycle;Signal;HPM_P1;HPM_P2
2023/01/11 00:01:38;;;;;;;4.70;2.53;;;4.90;99.90;;;;;;5221485;28;20544;-50
2023/01/11 00:04:09;;;;;;;9.37;2.77;;;5.10;99.90;;;;;;5242884;28;20434;-49
2023/01/11 00:06:41;;;;;;;6.20;2.70;;;5.10;99.90;;;;;;5238652;28;20180;-49
2023/01/11 00:09:12;;;;;;;10.77;2.47;;;5.10;99.90;;;;;;5203256;28;20264;-49
2023/01/11 00:11:43;;;;;;;9.00;2.80;;;5.20;99.90;;;;;;5224295;28;20432;-50
2023/01/11 00:14:14;;;;;;;6.83;1.90;;;5.20;99.90;;;;;;5240913;28;20450;-48
2023/01/11 00:16:45;;;;;;;11.00;2.73;;;5.30;99.90;;;;;;5234640;28;20185;-49
2023/01/11 00:19:16;;;;;;;4.53;2.43;;;5.20;99.90;;;;;;5230874;28;20921;-50
2023/01/11 00:21:48;;;;;;;13.70;2.40;;;5.30;99.90;;;;;;5241433;28;20277;-49
2023/01/11 00:24:19;;;;;;;7.97;2.60;;;5.20;99.90;;;;;;5239890;28;20535;-51
2023/01/11 00:26:50;;;;;;;10.57;2.60;;;5.00;99.90;;;;;;5245898;28;20432;-48
2023/01/11 00:29:21;;;;;;;4.93;2.33;;;4.90;99.90;;;;;;5229792;28;20194;-47
2023/01/11 00:31:52;;;;;;;12.83;2.40;;;5.00;99.90;;;;;;5228703;28;20598;-50
2023/01/11 00:34:23;;;;;;;3.70;1.87;;;5.20;99.90;;;;;;5250940;28;20946;-48
2023/01/11 00:36:54;;;;;;;14.83;2.63;;;5.20;99.90;;;;;;5231490;28;20450;-47
2023/01/11 00:39:24;;;;;;;8.43;2.50;;;5.10;99.90;;;;;;5246937;28;20454;-48
2023/01/11 00:50:24;;;;;;;7.87;2.13;;;5.10;99.90;;;;;;5248057;28;20933;-48
2023/01/11 00:52:57;;;;;;;5.13;2.40;;;5.10;99.90;;;;;;5242557;28;20494;-50
2023/01/11 00:55:28;;;;;;;5.83;2.50;;;5.00;99.90;;;;;;5232428;28;20492;-50
2023/01/11 00:58:00;;;;;;;10.07;3.13;;;4.90;99.90;;;;;;5230465;28;20852;-50
2023/01/11 01:00:31;;;;;;;7.73;2.87;;;4.90;99.90;;;;;;5240063;28;20189;-50
2023/01/11 01:03:01;;;;;;;7.20;3.70;;;4.90;99.90;;;;;;5248646;28;20520;-47
2023/01/11 01:05:32;;;;;;;4.67;3.07;;;5.00;99.90;;;;;;5246831;28;20203;-48
2023/01/11 01:08:03;;;;;;;10.37;2.00;;;4.90;99.90;;;;;;5232546;28;20871;-48
2023/01/11 01:10:36;;;;;;;8.20;2.60;;;5.00;99.90;;;;;;5242837;28;20192;-50
2023/01/11 01:15:59;;;;;;;6.37;2.27;;;4.70;99.90;;;;;;5232139;28;20445;-47
2023/01/11 01:18:36;;;;;;;3.67;2.13;;;4.70;99.90;;;;;;5241465;28;20471;-48
2023/01/11 01:21:07;;;;;;;10.43;2.47;;;4.60;99.90;;;;;;5243977;28;20623;-49
2023/01/11 01:23:38;;;;;;;6.93;2.37;;;4.60;99.90;;;;;;5245392;28;20444;-48
2023/01/11 01:26:09;;;;;;;4.87;1.87;;;4.60;99.90;;;;;;5220676;28;20220;-48
2023/01/11 01:28:39;;;;;;;22.37;2.70;;;4.60;99.90;;;;;;5253005;28;20286;-48
2023/01/11 01:31:11;;;;;;;7.90;2.30;;;4.70;99.90;;;;;;5237365;28;20196;-49
2023/01/11 01:33:42;;;;;;;10.73;2.97;;;4.60;99.90;;;;;;5251447;28;20178;-50
2023/01/11 01:36:12;;;;;;;2.00;1.70;;;4.80;99.90;;;;;;5244760;28;20430;-48
2023/01/11 01:38:43;;;;;;;5.10;2.20;;;4.60;99.90;;;;;;5242325;28;20477;-48
2023/01/11 01:41:15;;;;;;;2.20;2.00;;;4.60;99.90;;;;;;5245083;28;20287;-48
2023/01/11 01:43:50;;;;;;;12.30;2.50;;;4.60;99.90;;;;;;5227967;28;20914;-49
2023/01/11 01:46:25;;;;;;;10.17;2.43;;;4.50;99.90;;;;;;5247128;28;20438;-49
2023/01/11 01:49:06;;;;;;;6.10;2.67;;;4.70;99.90;;;;;;5231292;28;20464;-48
2023/01/11 01:51:46;;;;;;;13.80;2.80;;;4.60;99.90;;;;;;5249781;28;20442;-47
2023/01/11 01:54:25;;;;;;;5.90;2.60;;;4.70;99.90;;;;;;5226927;28;20585;-49
2023/01/11 01:57:01;;;;;;;24.20;3.70;;;4.70;99.90;;;;;;5226834;28;20963;-49
2023/01/11 01:59:33;;;;;;;3.60;2.40;;;4.70;99.90;;;;;;5245086;28;20462;-47
2023/01/11 02:02:04;;;;;;;7.77;2.20;;;4.80;99.90;;;;;;5239099;28;20635;-47
2023/01/11 02:04:41;;;;;;;5.33;2.40;;;4.90;99.90;;;;;;5236977;28;20439;-49
2023/01/11 02:07:12;;;;;;;6.00;2.80;;;4.90;99.90;;;;;;5251671;28;20194;-50
2023/01/11 02:09:55;;;;;;;8.90;2.17;;;5.00;99.90;;;;;;5239775;28;21069;-48
2023/01/11 02:12:30;;;;;;;9.47;2.60;;;4.90;99.90;;;;;;5242192;28;20230;-50
2023/01/11 02:15:02;;;;;;;6.87;2.67;;;4.90;99.90;;;;;;5246166;28;21282;-50
2023/01/11 02:17:32;;;;;;;10.47;2.40;;;5.10;99.90;;;;;;5247165;28;20515;-48
2023/01/11 02:20:37;;;;;;;8.07;2.33;;;5.20;99.90;;;;;;5228528;28;20471;-48
2023/01/11 02:23:13;;;;;;;2.03;1.87;;;5.10;99.90;;;;;;5245270;28;20225;-50
2023/01/11 02:26:06;;;;;;;15.03;2.37;;;5.00;99.90;;;;;;5232439;28;20430;-48
2023/01/11 02:28:58;;;;;;;1.93;1.73;;;5.00;99.90;;;;;;5243314;28;20467;-50
2023/01/11 02:31:44;;;;;;;3.47;1.77;;;5.20;99.90;;;;;;5236615;28;20447;-48
2023/01/11 02:34:18;;;;;;;4.10;2.23;;;5.10;99.90;;;;;;5241538;28;20447;-48
2023/01/11 02:36:56;;;;;;;10.77;1.90;;;5.30;99.90;;;;;;5246117;28;20444;-47
2023/01/11 02:39:41;;;;;;;7.10;1.63;;;5.10;99.90;;;;;;5243629;28;20526;-48
2023/01/11 02:45:21;;;;;;;7.60;1.80;;;5.30;99.90;;;;;;5236218;28;20451;-49
2023/01/11 02:48:03;;;;;;;2.70;1.40;;;5.20;99.90;;;;;;5247359;28;20461;-47
2023/01/11 02:50:45;;;;;;;6.53;2.20;;;5.30;99.90;;;;;;5221370;28;20448;-48
2023/01/11 02:53:47;;;;;;;14.80;2.67;;;5.40;99.90;;;;;;5242809;28;20495;-47
2023/01/11 02:56:26;;;;;;;8.43;1.73;;;5.30;99.90;;;;;;5235924;28;21480;-48
2023/01/11 02:58:59;;;;;;;3.50;1.77;;;5.40;99.90;;;;;;5239810;28;20478;-49
2023/01/11 03:01:30;;;;;;;11.50;2.63;;;5.40;99.90;;;;;;5228373;28;20467;-49
2023/01/11 03:04:01;;;;;;;4.10;1.70;;;5.50;99.90;;;;;;5244195;28;20453;-48
2023/01/11 03:06:33;;;;;;;2.77;1.87;;;5.40;99.90;;;;;;5245804;28;20688;-49
2023/01/11 03:09:21;;;;;;;4.17;1.40;;;5.40;99.90;;;;;;5243685;28;20618;-49
2023/01/11 03:15:16;;;;;;;4.43;1.63;;;5.60;99.90;;;;;;5242309;28;20446;-47
2023/01/11 03:18:17;;;;;;;6.40;1.97;;;5.70;99.90;;;;;;5225900;28;20444;-48
2023/01/11 03:21:14;;;;;;;10.40;2.40;;;5.60;99.90;;;;;;5240041;28;20450;-49
2023/01/11 03:24:00;;;;;;;3.60;1.00;;;5.70;99.90;;;;;;5243847;28;20437;-48
2023/01/11 03:26:37;;;;;;;4.27;1.30;;;5.70;99.90;;;;;;5237584;28;20431;-49
2023/01/11 03:29:14;;;;;;;6.30;1.70;;;5.80;99.90;;;;;;5241683;28;20446;-51
2023/01/11 03:31:57;;;;;;;1.93;1.00;;;5.80;99.90;;;;;;5241985;28;20802;-50
2023/01/11 03:34:49;;;;;;;10.83;1.40;;;5.70;99.90;;;;;;5244249;28;20451;-50
2023/01/11 03:37:27;;;;;;;8.13;1.43;;;5.90;99.90;;;;;;5228945;28;20844;-50
2023/01/11 03:40:17;;;;;;;6.00;1.80;;;5.90;99.90;;;;;;5221805;28;20459;-49
2023/01/11 03:43:09;;;;;;;3.73;1.57;;;6.00;99.90;;;;;;5241154;28;20534;-50
2023/01/11 03:46:19;;;;;;;2.20;1.80;;;6.00;99.90;;;;;;5241203;28;20435;-48
2023/01/11 03:49:03;;;;;;;3.00;1.30;;;5.90;99.90;;;;;;5225691;28;20452;-51
2023/01/11 03:51:41;;;;;;;4.20;1.73;;;5.90;99.90;;;;;;5233162;28;20803;-49
2023/01/11 03:54:16;;;;;;;4.67;1.60;;;5.90;99.90;;;;;;5225919;28;20445;-50
2023/01/11 03:56:55;;;;;;;2.50;1.37;;;5.80;99.90;;;;;;5238830;28;22357;-50
2023/01/11 03:59:26;;;;;;;5.10;1.40;;;5.80;99.90;;;;;;5240807;28;20465;-49
2023/01/11 04:01:58;;;;;;;1.43;1.00;;;5.90;99.90;;;;;;5229951;28;20478;-49
2023/01/11 04:04:29;;;;;;;1.90;1.23;;;6.00;99.90;;;;;;5245244;28;20472;-49
2023/01/11 04:07:00;;;;;;;4.63;1.50;;;5.90;99.90;;;;;;5234560;28;20478;-51
2023/01/11 04:09:31;;;;;;;6.00;1.63;;;5.90;99.90;;;;;;5229747;28;20666;-49
2023/01/11 04:12:02;;;;;;;2.13;1.40;;;6.10;99.90;;;;;;5226859;28;20959;-49
2023/01/11 04:14:33;;;;;;;4.00;1.70;;;6.10;99.90;;;;;;5231199;28;20440;-49
2023/01/11 04:17:04;;;;;;;7.97;1.87;;;5.90;99.90;;;;;;5247702;28;20440;-56
2023/01/11 04:19:35;;;;;;;2.93;1.20;;;6.00;99.90;;;;;;5247202;28;20471;-49
2023/01/11 04:22:05;;;;;;;6.00;1.83;;;6.10;99.90;;;;;;5230454;28;20456;-49
2023/01/11 04:24:39;;;;;;;4.53;1.63;;;6.10;99.90;;;;;;5232005;28;20239;-51
2023/01/11 04:27:10;;;;;;;3.03;1.47;;;6.00;99.90;;;;;;5246638;28;20646;-50
2023/01/11 04:29:41;;;;;;;9.77;1.80;;;6.00;99.90;;;;;;5234561;28;20456;-50
2023/01/11 04:32:11;;;;;;;5.10;1.43;;;6.00;99.90;;;;;;5230388;28;20443;-51
2023/01/11 04:34:42;;;;;;;8.23;2.50;;;6.10;99.90;;;;;;5230014;28;20186;-49
2023/01/11 04:37:13;;;;;;;4.63;1.40;;;6.10;99.90;;;;;;5241257;28;20194;-50
2023/01/11 04:39:43;;;;;;;4.17;1.40;;;6.10;99.90;;;;;;5240839;28;20240;-49
2023/01/11 04:42:17;;;;;;;1.63;0.97;;;6.00;99.90;;;;;;5250607;28;20217;-50
2023/01/11 04:44:52;;;;;;;3.17;1.20;;;5.90;99.90;;;;;;5207364;28;20212;-50
2023/01/11 04:47:24;;;;;;;2.40;1.50;;;6.00;99.90;;;;;;5249699;28;20434;-50
2023/01/11 04:49:55;;;;;;;4.77;1.60;;;6.00;99.90;;;;;;5248560;28;20827;-50
2023/01/11 04:52:26;;;;;;;5.23;1.80;;;6.00;99.90;;;;;;5227601;28;20458;-48
2023/01/11 04:54:57;;;;;;;8.23;1.90;;;6.20;99.90;;;;;;5212162;28;20201;-49
2023/01/11 04:57:27;;;;;;;4.87;1.13;;;6.20;99.90;;;;;;5246473;28;20193;-54
2023/01/11 04:59:58;;;;;;;3.43;2.03;;;6.20;99.90;;;;;;5244675;28;20500;-57
2023/01/11 05:02:29;;;;;;;3.47;1.20;;;6.10;99.90;;;;;;5248655;28;20220;-49
2023/01/11 05:04:59;;;;;;;3.37;1.43;;;6.20;99.90;;;;;;5229941;28;20208;-48
2023/01/11 05:07:30;;;;;;;2.10;1.37;;;6.20;99.90;;;;;;5250114;28;20190;-50
2023/01/11 05:10:01;;;;;;;5.57;1.80;;;6.10;99.90;;;;;;5240212;28;20193;-49
2023/01/11 05:12:32;;;;;;;5.37;1.77;;;6.10;99.90;;;;;;5228651;28;20277;-48
2023/01/11 05:15:04;;;;;;;7.17;1.80;;;6.20;99.90;;;;;;5226975;28;20608;-48
2023/01/11 05:17:34;;;;;;;3.27;1.90;;;6.10;99.90;;;;;;5230679;28;20300;-49
2023/01/11 05:20:06;;;;;;;11.73;1.73;;;6.20;99.90;;;;;;5230239;28;20538;-49
2023/01/11 05:22:37;;;;;;;2.43;1.20;;;6.00;99.90;;;;;;5248106;28;20266;-50
2023/01/11 05:25:07;;;;;;;2.50;1.70;;;6.00;99.90;;;;;;5241780;28;20472;-49
2023/01/11 05:27:38;;;;;;;7.13;2.30;;;6.10;99.90;;;;;;5232472;28;20258;-50
2023/01/11 05:30:10;;;;;;;7.23;2.53;;;6.10;99.90;;;;;;5225181;28;20187;-50
2023/01/11 05:32:41;;;;;;;7.03;1.90;;;6.10;99.90;;;;;;5241318;28;20202;-50
2023/01/11 05:35:12;;;;;;;5.83;1.70;;;6.20;99.90;;;;;;5247834;28;20443;-49
2023/01/11 05:37:43;;;;;;;3.47;1.90;;;6.10;99.90;;;;;;5241825;28;20195;-49
2023/01/11 05:40:13;;;;;;;6.27;1.43;;;6.10;99.90;;;;;;5232797;28;20191;-50
2023/01/11 05:42:45;;;;;;;2.67;1.70;;;6.10;99.90;;;;;;5228855;28;20206;-49
2023/01/11 05:45:28;;;;;;;3.93;2.03;;;6.10;99.90;;;;;;5244938;28;20249;-50
2023/01/11 05:47:59;;;;;;;3.73;2.43;;;6.10;99.90;;;;;;5240625;28;20526;-49
2023/01/11 05:50:30;;;;;;;11.90;4.33;;;6.10;99.90;;;;;;5240677;28;20451;-50
2023/01/11 05:53:00;;;;;;;11.10;4.10;;;6.20;99.90;;;;;;5227411;28;20444;-49
2023/01/11 05:55:31;;;;;;;7.60;3.70;;;6.10;99.90;;;;;;5224031;28;20373;-50
2023/01/11 05:58:05;;;;;;;1.90;1.80;;;6.20;99.90;;;;;;5226614;28;20678;-51
2023/01/11 06:00:36;;;;;;;3.60;1.93;;;6.10;99.90;;;;;;5242073;28;20182;-51
2023/01/11 06:03:06;;;;;;;2.73;1.80;;;6.10;99.90;;;;;;5236269;28;20564;-50
2023/01/11 06:05:37;;;;;;;7.60;1.77;;;6.00;99.90;;;;;;5248578;28;20190;-49
2023/01/11 06:08:08;;;;;;;1.57;1.37;;;6.10;99.90;;;;;;5248580;28;20700;-50
2023/01/11 06:10:39;;;;;;;4.20;1.67;;;6.00;99.90;;;;;;5245322;28;20182;-51
2023/01/11 06:13:25;;;;;;;5.20;2.03;;;6.00;99.90;;;;;;5228776;28;20440;-50
2023/01/11 06:16:03;;;;;;;1.67;0.93;;;6.00;99.90;;;;;;5246706;28;20523;-49
2023/01/11 06:18:37;;;;;;;1.13;1.03;;;6.00;99.90;;;;;;5246210;28;20484;-50
2023/01/11 06:21:13;;;;;;;4.23;1.50;;;6.10;99.90;;;;;;5221846;28;20449;-50
2023/01/11 06:23:47;;;;;;;4.23;1.63;;;6.20;99.90;;;;;;5223191;28;20441;-48
2023/01/11 06:26:22;;;;;;;4.90;1.77;;;6.10;99.90;;;;;;5217728;28;20443;-49
2023/01/11 06:28:52;;;;;;;10.23;5.77;;;6.10;99.90;;;;;;5225542;28;20460;-49
2023/01/11 06:31:26;;;;;;;2.53;1.57;;;6.00;99.90;;;;;;5207351;28;20435;-49
2023/01/11 06:33:57;;;;;;;5.20;1.57;;;6.10;99.90;;;;;;5242614;28;20185;-49
2023/01/11 06:36:28;;;;;;;3.73;2.33;;;6.10;99.90;;;;;;5240534;28;20467;-49
2023/01/11 06:38:59;;;;;;;3.83;1.77;;;6.10;99.90;;;;;;5244509;28;20463;-51
2023/01/11 06:41:32;;;;;;;4.30;2.30;;;6.00;99.90;;;;;;5236683;28;20214;-50
2023/01/11 06:44:05;;;;;;;3.00;2.13;;;6.00;99.90;;;;;;5241581;28;20665;-50
2023/01/11 06:46:36;;;;;;;4.20;2.47;;;5.90;99.90;;;;;;5244322;28;20440;-50
2023/01/11 06:49:10;;;;;;;7.10;3.40;;;6.10;99.90;;;;;;5243862;28;20459;-50
2023/01/11 06:51:41;;;;;;;30.43;2.70;;;6.00;99.90;;;;;;5244404;28;20182;-49
2023/01/11 06:54:12;;;;;;;3.00;2.40;;;6.10;99.90;;;;;;5237532;28;20968;-51
2023/01/11 06:56:45;;;;;;;7.50;2.30;;;6.20;99.90;;;;;;5234649;28;20440;-50
2023/01/11 06:59:16;;;;;;;3.77;1.77;;;6.10;99.90;;;;;;5244791;28;20292;-50
2023/01/11 07:01:46;;;;;;;6.50;2.60;;;6.10;99.90;;;;;;5225760;28;20989;-49
2023/01/11 07:04:18;;;;;;;2.23;2.00;;;6.30;99.90;;;;;;5238660;28;20651;-49
2023/01/11 07:06:53;;;;;;;5.87;2.53;;;6.10;99.90;;;;;;5238348;28;20190;-50
2023/01/11 07:09:23;;;;;;;5.60;3.07;;;6.20;99.90;;;;;;5224381;28;20473;-49
2023/01/11 07:11:54;;;;;;;157.20;56.13;;;6.10;99.90;;;;;;5242167;28;20495;-51
2023/01/11 07:14:25;;;;;;;18.33;7.30;;;6.20;99.90;;;;;;5244432;28;20182;-50
2023/01/11 07:16:58;;;;;;;7.77;3.57;;;6.10;99.90;;;;;;5240063;28;20273;-48
2023/01/11 07:19:29;;;;;;;4.03;2.93;;;6.10;99.90;;;;;;5238323;28;20225;-50
2023/01/11 07:21:59;;;;;;;6.50;3.00;;;6.10;99.90;;;;;;5223611;28;20521;-50
2023/01/11 07:24:30;;;;;;;10.20;6.27;;;6.20;99.90;;;;;;5239577;28;20179;-50
2023/01/11 07:27:01;;;;;;;3.80;2.57;;;6.30;99.90;;;;;;5228242;28;20228;-50
2023/01/11 07:29:32;;;;;;;4.70;2.60;;;6.40;99.90;;;;;;5221938;28;20209;-50
2023/01/11 07:32:03;;;;;;;3.77;3.00;;;6.30;99.90;;;;;;5242999;28;20820;-49
2023/01/11 07:34:34;;;;;;;5.70;2.63;;;6.40;99.90;;;;;;5241725;28;20178;-50
2023/01/11 07:37:05;;;;;;;3.20;2.57;;;6.40;99.90;;;;;;5239782;28;20469;-50
2023/01/11 07:39:36;;;;;;;6.20;2.67;;;6.40;99.90;;;;;;5245386;28;20205;-50
2023/01/11 07:44:59;;;;;;;5.50;2.90;;;6.50;99.90;;;;;;5241660;28;20236;-49
2023/01/11 07:47:33;;;;;;;9.47;3.83;;;6.40;99.90;;;;;;5246333;28;20430;-49
2023/01/11 07:50:04;;;;;;;4.40;3.57;;;6.40;99.90;;;;;;5240808;28;20186;-50
2023/01/11 07:52:34;;;;;;;6.33;3.27;;;6.50;99.90;;;;;;5240260;28;20487;-50
2023/01/11 07:55:05;;;;;;;4.10;2.30;;;6.60;99.90;;;;;;5244364;28;20841;-49
2023/01/11 07:57:36;;;;;;;3.03;2.37;;;6.50;99.90;;;;;;5239585;28;20228;-51
2023/01/11 08:00:08;;;;;;;2.93;2.30;;;6.50;99.90;;;;;;5220096;28;20459;-50
2023/01/11 08:02:39;;;;;;;3.63;2.83;;;6.60;99.90;;;;;;5240935;28;20685;-53
2023/01/11 08:05:10;;;;;;;3.73;3.30;;;6.70;99.90;;;;;;5241180;28;20436;-50
2023/01/11 08:07:41;;;;;;;4.03;3.13;;;6.60;99.90;;;;;;5238132;28;20189;-51
2023/01/11 08:10:11;;;;;;;4.10;3.17;;;6.60;99.90;;;;;;5226030;28;20179;-50
2023/01/11 08:15:36;;;;;;;12.03;5.30;;;6.70;99.90;;;;;;5240963;28;20196;-49
2023/01/11 08:18:09;;;;;;;11.63;7.00;;;6.80;99.90;;;;;;5224770;28;21004;-50
2023/01/11 08:20:40;;;;;;;7.70;5.80;;;7.00;99.90;;;;;;5222441;28;20197;-51
2023/01/11 08:23:10;;;;;;;7.63;2.60;;;6.90;99.90;;;;;;5238871;28;20789;-51
2023/01/11 08:25:41;;;;;;;2.63;2.43;;;6.80;99.90;;;;;;5239045;28;20443;-51
2023/01/11 08:28:12;;;;;;;4.10;1.93;;;7.00;99.90;;;;;;5209550;28;20202;-49
2023/01/11 08:30:43;;;;;;;5.53;1.90;;;7.00;99.90;;;;;;5229696;28;20193;-50
2023/01/11 08:33:13;;;;;;;2.83;2.50;;;7.00;99.90;;;;;;5209184;28;20559;-50
2023/01/11 08:35:44;;;;;;;2.03;1.90;;;7.20;99.90;;;;;;5223921;28;20420;-51
2023/01/11 08:38:15;;;;;;;4.60;2.30;;;7.20;99.90;;;;;;5245452;28;20692;-50
2023/01/11 08:40:46;;;;;;;2.50;1.70;;;7.20;99.90;;;;;;5221945;28;20516;-49
2023/01/11 08:43:17;;;;;;;4.60;1.50;;;7.20;99.90;;;;;;5243162;28;20690;-51
2023/01/11 08:45:49;;;;;;;7.97;1.73;;;7.20;99.90;;;;;;5223031;28;20202;-51
2023/01/11 08:48:20;;;;;;;2.90;1.03;;;7.20;99.90;;;;;;5245254;28;20213;-51
2023/01/11 08:50:51;;;;;;;5.00;2.33;;;7.20;99.90;;;;;;5226284;28;20459;-52
2023/01/11 08:53:21;;;;;;;3.60;2.40;;;7.30;99.90;;;;;;5246422;28;20213;-50
2023/01/11 08:55:53;;;;;;;3.70;1.87;;;7.20;99.90;;;;;;5245396;28;20528;-51
2023/01/11 08:58:24;;;;;;;7.80;4.20;;;7.30;99.90;;;;;;5246104;28;20310;-48
2023/01/11 09:01:01;;;;;;;6.00;3.53;;;7.30;99.90;;;;;;5228858;28;20459;-50
2023/01/11 09:03:32;;;;;;;5.60;3.60;;;7.50;99.90;;;;;;5227682;28;20467;-50
2023/01/11 09:06:03;;;;;;;10.10;2.90;;;7.60;99.90;;;;;;5244875;28;20440;-50
2023/01/11 09:08:34;;;;;;;4.93;2.53;;;7.30;99.90;;;;;;5245292;28;20209;-49
2023/01/11 09:11:52;;;;;;;13.03;2.73;;;7.40;99.90;;;;;;5242047;28;20440;-49
2023/01/11 09:13:55;;;;;;;2.87;1.83;;;7.40;99.90;;;;;;5243867;28;20605;-49
2023/01/11 09:16:26;;;;;;;3.80;2.23;;;7.30;99.90;;;;;;5240104;28;20471;-50
2023/01/11 09:18:56;;;;;;;6.00;2.10;;;7.30;99.90;;;;;;5221659;28;20221;-52
2023/01/11 09:21:29;;;;;;;2.80;1.77;;;7.30;99.90;;;;;;5204373;28;20190;-51
2023/01/11 09:24:00;;;;;;;1.10;1.10;;;7.40;99.90;;;;;;5240028;28;20190;-51
2023/01/11 09:26:31;;;;;;;4.30;1.77;;;7.30;99.90;;;;;;5244507;28;20447;-50
2023/01/11 09:29:02;;;;;;;1.67;1.57;;;7.30;99.90;;;;;;5222405;28;20202;-52
2023/01/11 09:31:32;;;;;;;6.17;2.40;;;7.20;99.90;;;;;;5235731;28;20432;-51
2023/01/11 09:34:04;;;;;;;5.67;2.13;;;7.40;99.90;;;;;;5238533;28;20189;-51
2023/01/11 09:36:35;;;;;;;2.30;2.07;;;7.40;99.90;;;;;;5222555;28;20327;-51
2023/01/11 09:39:10;;;;;;;4.60;2.17;;;7.40;99.90;;;;;;5241276;28;20464;-50
2023/01/11 09:42:15;;;;;;;4.20;2.60;;;7.40;99.90;;;;;;5241497;28;20912;-50
2023/01/11 09:44:53;;;;;;;5.50;1.67;;;7.20;99.90;;;;;;5240551;28;20441;-51
2023/01/11 09:47:26;;;;;;;5.70;1.83;;;7.20;99.90;;;;;;5239859;28;20464;-51
2023/01/11 09:50:02;;;;;;;5.40;2.20;;;7.00;99.90;;;;;;5237947;28;20463;-52
2023/01/11 09:52:43;;;;;;;7.20;2.50;;;7.00;99.90;;;;;;5216370;28;20452;-51
2023/01/11 09:55:23;;;;;;;6.00;2.30;;;6.90;99.90;;;;;;5238952;28;20434;-52
2023/01/11 09:58:02;;;;;;;6.90;1.83;;;6.90;99.90;;;;;;5212390;28;20518;-51
2023/01/11 10:01:02;;;;;;;10.43;2.90;;;6.70;99.90;;;;;;5215762;28;20968;-50
2023/01/11 10:04:02;;;;;;;9.53;2.30;;;6.80;99.90;;;;;;5239577;28;20537;-50
2023/01/11 10:06:54;;;;;;;4.93;2.07;;;6.70;99.90;;;;;;5232806;28;20448;-51
2023/01/11 10:09:28;;;;;;;4.83;2.93;;;6.70;99.90;;;;;;5242334;28;20598;-51
2023/01/11 10:12:34;;;;;;;2.40;2.30;;;6.80;99.90;;;;;;5239978;28;20444;-51
2023/01/11 10:15:31;;;;;;;6.30;3.10;;;6.80;99.90;;;;;;5206376;28;20553;-52
2023/01/11 10:18:17;;;;;;;3.97;1.90;;;7.00;99.90;;;;;;5240958;28;20479;-52
2023/01/11 10:20:54;;;;;;;3.70;2.70;;;7.00;99.90;;;;;;5246342;28;20941;-51
2023/01/11 10:24:10;;;;;;;2.57;2.37;;;6.90;99.90;;;;;;5216737;28;20553;-52
2023/01/11 10:26:41;;;;;;;2.37;2.00;;;7.00;99.90;;;;;;5182618;28;20481;-51
2023/01/11 10:32:20;;;;;;;3.03;1.80;;;6.90;99.90;;;;;;5220020;28;20296;-52
2023/01/11 10:34:59;;;;;;;1.83;1.73;;;6.90;99.90;;;;;;5222980;28;20452;-51
2023/01/11 10:41:24;;;;;;;2.97;1.97;;;7.10;99.90;;;;;;5226514;28;20495;-50
2023/01/11 10:43:28;;;;;;;3.23;2.00;;;7.00;99.90;;;;;;5230608;28;20468;-51
2023/01/11 10:46:08;;;;;;;3.20;2.10;;;7.10;99.90;;;;;;5225579;28;20509;-51
2023/01/11 10:48:41;;;;;;;4.13;2.20;;;7.10;99.90;;;;;;5238308;28;20967;-52
2023/01/11 10:51:33;;;;;;;6.60;3.07;;;7.10;99.90;;;;;;5243855;28;20910;-52
2023/01/11 10:54:21;;;;;;;4.50;3.13;;;7.00;99.90;;;;;;5239701;28;20436;-52
2023/01/11 10:57:19;;;;;;;4.43;2.77;;;7.10;99.90;;;;;;5241298;28;20868;-51
2023/01/11 11:00:20;;;;;;;15.47;6.50;;;7.10;99.90;;;;;;5240722;28;20490;-51
2023/01/11 11:03:09;;;;;;;13.27;6.10;;;7.20;99.90;;;;;;5231298;28;21003;-51
2023/01/11 11:06:04;;;;;;;13.17;6.40;;;7.10;99.90;;;;;;5234931;28;20432;-51
2023/01/11 11:08:53;;;;;;;8.07;5.23;;;7.00;99.90;;;;;;5231317;28;20465;-52
2023/01/11 11:11:39;;;;;;;3.87;3.50;;;7.10;99.90;;;;;;5229600;28;20494;-52
2023/01/11 11:14:17;;;;;;;3.40;2.73;;;7.10;99.90;;;;;;5238654;28;20432;-51
2023/01/11 11:17:08;;;;;;;9.03;4.20;;;7.10;99.90;;;;;;5223287;28;20803;-52
2023/01/11 11:19:39;;;;;;;3.73;3.17;;;7.20;99.90;;;;;;5233020;28;20894;-51
2023/01/11 11:22:11;;;;;;;4.00;3.00;;;7.20;99.90;;;;;;5231429;28;20879;-52
2023/01/11 11:24:47;;;;;;;3.10;2.90;;;7.20;99.90;;;;;;5220464;28;20181;-51
2023/01/11 11:27:31;;;;;;;4.50;3.50;;;7.30;99.90;;;;;;5239002;28;20939;-52
2023/01/11 11:30:03;;;;;;;5.93;3.80;;;7.20;99.90;;;;;;5226151;28;20450;-51
2023/01/11 11:32:37;;;;;;;6.40;3.40;;;7.40;99.90;;;;;;5221275;28;21013;-52
2023/01/11 11:35:49;;;;;;;4.87;3.83;;;7.30;99.90;;;;;;5235041;28;20432;-53
2023/01/11 11:38:31;;;;;;;5.00;3.73;;;7.30;99.90;;;;;;5212021;28;20520;-52
2023/01/11 11:41:10;;;;;;;3.60;3.30;;;7.20;99.90;;;;;;5219752;28;20535;-52
2023/01/11 11:43:42;;;;;;;10.83;3.50;;;7.30;99.90;;;;;;5222741;28;20468;-52
2023/01/11 11:46:13;;;;;;;11.30;4.33;;;7.20;99.90;;;;;;5220584;28;20493;-52
2023/01/11 11:49:04;;;;;;;9.43;4.03;;;7.40;99.90;;;;;;5220208;28;20499;-52
2023/01/11 11:51:35;;;;;;;7.70;3.57;;;7.50;99.90;;;;;;5242686;28;20178;-52
2023/01/11 11:54:13;;;;;;;10.23;4.23;;;7.50;99.90;;;;;;5240995;28;20443;-52
2023/01/11 11:56:44;;;;;;;7.93;3.60;;;7.20;99.90;;;;;;5228184;28;20428;-50
2023/01/11 11:59:19;;;;;;;8.83;3.70;;;7.30;99.90;;;;;;5212318;28;20473;-51
2023/01/11 12:02:02;;;;;;;12.93;3.80;;;7.20;99.90;;;;;;5223513;28;20197;-52
2023/01/11 12:04:47;;;;;;;6.20;4.07;;;7.30;99.90;;;;;;5208283;28;20436;-53
2023/01/11 12:07:20;;;;;;;20.80;8.87;;;7.40;99.90;;;;;;5234657;28;20471;-51
2023/01/11 12:09:54;;;;;;;15.13;6.30;;;7.20;99.90;;;;;;5240958;28;20476;-52
2023/01/11 12:12:25;;;;;;;9.13;6.23;;;7.30;99.90;;;;;;5241100;28;20416;-52
2023/01/11 12:15:14;;;;;;;13.27;8.17;;;7.30;99.90;;;;;;5244666;28;20806;-49
2023/01/11 12:17:46;;;;;;;10.70;6.37;;;7.40;99.90;;;;;;5238662;28;20429;-51
2023/01/11 12:20:33;;;;;;;12.80;5.90;;;7.30;99.90;;;;;;5224318;28;20524;-51
2023/01/11 12:23:26;;;;;;;17.17;8.70;;;7.40;99.90;;;;;;5220431;28;20502;-53
2023/01/11 12:26:09;;;;;;;9.33;5.90;;;7.50;99.90;;;;;;5239613;28;20497;-54
2023/01/11 12:29:08;;;;;;;18.23;6.10;;;7.50;99.90;;;;;;5240273;28;20463;-51
2023/01/11 12:31:57;;;;;;;10.50;4.57;;;7.50;99.90;;;;;;5212371;28;20440;-52
2023/01/11 12:35:08;;;;;;;25.07;8.00;;;7.50;99.90;;;;;;5242617;28;20721;-51
2023/01/11 12:37:41;;;;;;;19.20;9.13;;;7.50;99.90;;;;;;5236323;28;20481;-51
2023/01/11 12:40:50;;;;;;;15.23;6.50;;;7.50;99.90;;;;;;5242510;28;20449;-54
2023/01/11 12:43:52;;;;;;;13.43;6.53;;;7.60;99.90;;;;;;5235693;28;20456;-54
2023/01/11 12:47:00;;;;;;;13.73;5.00;;;7.60;99.90;;;;;;5235388;28;20436;-53
2023/01/11 12:49:52;;;;;;;16.23;6.77;;;7.50;99.90;;;;;;5239382;28;21029;-52
2023/01/11 12:52:54;;;;;;;19.77;7.37;;;7.70;99.90;;;;;;5237458;28;20800;-54
2023/01/11 12:55:46;;;;;;;28.30;9.90;;;7.60;99.90;;;;;;5221879;28;20440;-52
2023/01/11 12:58:43;;;;;;;20.20;7.27;;;7.60;99.90;;;;;;5241786;28;20456;-51
2023/01/11 13:01:40;;;;;;;11.20;6.53;;;7.60;99.90;;;;;;5198366;28;20952;-51
2023/01/11 13:04:46;;;;;;;17.23;7.07;;;7.60;99.90;;;;;;5241691;28;20440;-52
2023/01/11 13:07:17;;;;;;;16.70;8.13;;;7.50;99.90;;;;;;5228234;28;20802;-52
2023/01/11 13:09:57;;;;;;;6.07;4.90;;;7.60;99.90;;;;;;5243503;28;20452;-53
2023/01/11 13:12:36;;;;;;;11.03;5.97;;;7.50;99.90;;;;;;5240996;28;20232;-51
2023/01/11 13:15:59;;;;;;;16.13;7.50;;;7.50;99.90;;;;;;5238691;28;20443;-52
2023/01/11 13:18:47;;;;;;;24.00;7.30;;;7.50;99.90;;;;;;5144102;28;20577;-54
2023/01/11 13:21:29;;;;;;;10.70;5.60;;;7.50;99.90;;;;;;5237605;28;20774;-53
2023/01/11 13:24:12;;;;;;;11.00;6.23;;;7.50;99.90;;;;;;5240712;28;20474;-52
2023/01/11 13:26:47;;;;;;;7.73;5.40;;;7.50;99.90;;;;;;5243732;28;20483;-52
2023/01/11 13:29:26;;;;;;;8.87;4.50;;;7.60;99.90;;;;;;5234786;28;20451;-51
2023/01/11 13:31:59;;;;;;;5.80;3.53;;;7.60;99.90;;;;;;5233673;28;20432;-52
2023/01/11 13:34:54;;;;;;;4.37;3.33;;;7.60;99.90;;;;;;5226313;28;20993;-52
2023/01/11 13:37:44;;;;;;;3.43;3.23;;;7.60;99.90;;;;;;5220628;28;20437;-53
2023/01/11 13:40:34;;;;;;;4.23;3.70;;;7.60;99.90;;;;;;5240436;28;20468;-52
2023/01/11 13:43:32;;;;;;;4.93;4.33;;;7.60;99.90;;;;;;5205946;28;21077;-53
2023/01/11 13:46:43;;;;;;;5.97;3.20;;;7.70;99.90;;;;;;5218110;28;20446;-52
2023/01/11 13:49:37;;;;;;;6.17;3.27;;;7.60;99.90;;;;;;5212783;28;20441;-52
2023/01/11 13:52:25;;;;;;;5.77;2.93;;;7.70;99.90;;;;;;5239198;28;21036;-52
2023/01/11 13:55:09;;;;;;;3.40;2.80;;;7.80;99.90;;;;;;5246070;28;20448;-52
2023/01/11 13:57:57;;;;;;;3.43;3.13;;;7.70;99.90;;;;;;5221909;28;20467;-52
2023/01/11 14:00:37;;;;;;;3.97;3.77;;;7.70;99.90;;;;;;5240694;28;20433;-51
2023/01/11 14:03:24;;;;;;;3.67;2.87;;;7.80;99.90;;;;;;5235217;28;20546;-52
2023/01/11 14:06:30;;;;;;;3.47;3.20;;;7.70;99.90;;;;;;5238090;28;20521;-52
2023/01/11 14:09:19;;;;;;;2.60;2.47;;;7.70;99.90;;;;;;5240742;28;20458;-51
2023/01/11 14:12:17;;;;;;;4.53;3.70;;;7.70;99.90;;;;;;5237190;28;20436;-51
2023/01/11 14:15:21;;;;;;;3.50;3.20;;;7.80;99.90;;;;;;5237789;28;20437;-51
2023/01/11 14:18:18;;;;;;;3.57;2.50;;;7.80;99.90;;;;;;5240831;28;20636;-52
2023/01/11 14:21:14;;;;;;;3.10;2.30;;;7.80;99.90;;;;;;5241057;28;20760;-51